sensor_id;sensor_type;location;lat;lon;timestamp;pressure;altitude;pressure_sealevel;temperature;humidity
74678;BME280;67324;56.326;43.982;2023-03-01T00:03:29;99103.78;;;21.11;30.14
74678;BME280;67324;56.326;43.982;2023-03-01T00:05:54;99098.69;;;21.09;30.12
74678;BME280;67324;56.326;43.982;2023-03-01T00:08:20;99096.91;;;21.10;29.98
74678;BME280;67324;56.326;43.982;2023-03-01T00:10:46;99109.03;;;21.11;30.03
74678;BME280;67324;56.326;43.982;2023-03-01T00:13:12;99091.44;;;21.11;29.96
74678;BME280;67324;56.326;43.982;2023-03-01T00:15:39;99106.41;;;21.11;30.02
74678;BME280;67324;56.326;43.982;2023-03-01T00:18:06;99100.34;;;21.10;30.08
74678;BME280;67324;56.326;43.982;2023-03-01T00:20:32;99100.34;;;21.10;29.98
74678;BME280;67324;56.326;43.982;2023-03-01T00:22:57;99091.44;;;21.11;30.13
74678;BME280;67324;56.326;43.982;2023-03-01T00:25:23;99097.72;;;21.10;30.07
74678;BME280;67324;56.326;43.982;2023-03-01T00:27:49;99087.19;;;21.10;30.06
74678;BME280;67324;56.326;43.982;2023-03-01T00:30:34;99096.91;;;21.10;30.06
74678;BME280;67324;56.326;43.982;2023-03-01T00:33:18;99095.91;;;21.11;30.03
74678;BME280;67324;56.326;43.982;2023-03-01T00:35:44;99102.78;;;21.12;30.06
74678;BME280;67324;56.326;43.982;2023-03-01T00:38:10;99100.34;;;21.10;29.97
74678;BME280;67324;56.326;43.982;2023-03-01T00:40:36;99101.97;;;21.11;30.06
74678;BME280;67324;56.326;43.982;2023-03-01T00:43:03;99096.91;;;21.10;30.08
74678;BME280;67324;56.326;43.982;2023-03-01T00:45:29;99092.25;;;21.12;29.99
74678;BME280;67324;56.326;43.982;2023-03-01T00:47:57;99100.16;;;21.12;30.00
74678;BME280;67324;56.326;43.982;2023-03-01T00:50:24;99100.16;;;21.12;30.01
74678;BME280;67324;56.326;43.982;2023-03-01T00:52:54;99093.09;;;21.12;30.09
74678;BME280;67324;56.326;43.982;2023-03-01T00:55:21;99090.47;;;21.12;29.99
74678;BME280;67324;56.326;43.982;2023-03-01T00:57:48;99088.00;;;21.11;29.99
74678;BME280;67324;56.326;43.982;2023-03-01T01:00:14;99090.63;;;21.11;29.97
74678;BME280;67324;56.326;43.982;2023-03-01T01:02:58;99086.19;;;21.11;30.06
74678;BME280;67324;56.326;43.982;2023-03-01T01:05:24;99093.09;;;21.12;30.01
74678;BME280;67324;56.326;43.982;2023-03-01T01:07:50;99087.00;;;21.12;30.18
74678;BME280;67324;56.326;43.982;2023-03-01T01:10:16;99087.84;;;21.12;30.10
74678;BME280;67324;56.326;43.982;2023-03-01T01:12:45;99085.22;;;21.12;30.02
74678;BME280;67324;56.326;43.982;2023-03-01T01:15:12;99089.63;;;21.12;30.00
74678;BME280;67324;56.326;43.982;2023-03-01T01:17:40;99091.28;;;21.13;30.08
74678;BME280;67324;56.326;43.982;2023-03-01T01:20:06;99089.63;;;21.12;30.06
74678;BME280;67324;56.326;43.982;2023-03-01T01:22:33;99092.25;;;21.12;29.97
74678;BME280;67324;56.326;43.982;2023-03-01T01:24:58;99089.63;;;21.12;29.99
74678;BME280;67324;56.326;43.982;2023-03-01T01:27:24;99095.50;;;21.14;30.04
74678;BME280;67324;56.326;43.982;2023-03-01T01:29:52;99087.84;;;21.12;30.00
74678;BME280;67324;56.326;43.982;2023-03-01T01:32:18;99095.50;;;21.14;29.99
74678;BME280;67324;56.326;43.982;2023-03-01T01:34:44;99110.66;;;21.12;29.97
74678;BME280;67324;56.326;43.982;2023-03-01T01:37:11;99094.72;;;21.13;30.10
74678;BME280;67324;56.326;43.982;2023-03-01T01:39:37;99088.81;;;21.11;29.97
74678;BME280;67324;56.326;43.982;2023-03-01T01:42:03;99106.25;;;21.12;29.97
74678;BME280;67324;56.326;43.982;2023-03-01T01:44:29;99107.84;;;21.13;29.99
74678;BME280;67324;56.326;43.982;2023-03-01T01:47:07;99095.50;;;21.14;30.14
74678;BME280;67324;56.326;43.982;2023-03-01T01:49:41;99093.91;;;21.13;30.01
74678;BME280;67324;56.326;43.982;2023-03-01T01:54:45;99102.59;;;21.13;29.91
74678;BME280;67324;56.326;43.982;2023-03-01T01:57:27;99098.34;;;21.12;29.90
74678;BME280;67324;56.326;43.982;2023-03-01T02:00:15;99107.84;;;21.13;29.93
74678;BME280;67324;56.326;43.982;2023-03-01T02:02:45;99099.97;;;21.13;30.13
74678;BME280;67324;56.326;43.982;2023-03-01T02:05:32;99100.97;;;21.12;30.02
74678;BME280;67324;56.326;43.982;2023-03-01T02:08:00;99102.59;;;21.13;30.08
74678;BME280;67324;56.326;43.982;2023-03-01T02:10:27;99087.84;;;21.12;29.99
74678;BME280;67324;56.326;43.982;2023-03-01T02:12:55;99099.16;;;21.13;29.98
74678;BME280;67324;56.326;43.982;2023-03-01T02:15:44;99096.53;;;21.13;30.07
74678;BME280;67324;56.326;43.982;2023-03-01T02:18:13;99101.78;;;21.13;29.92
74678;BME280;67324;56.326;43.982;2023-03-01T02:20:51;99106.03;;;21.14;29.96
74678;BME280;67324;56.326;43.982;2023-03-01T02:23:20;99107.06;;;21.13;30.04
74678;BME280;67324;56.326;43.982;2023-03-01T02:25:55;99104.41;;;21.13;29.93
74678;BME280;67324;56.326;43.982;2023-03-01T02:28:33;99101.78;;;21.13;30.02
74678;BME280;67324;56.326;43.982;2023-03-01T02:31:01;99118.38;;;21.13;29.95
74678;BME280;67324;56.326;43.982;2023-03-01T02:33:47;99109.69;;;21.13;30.09
74678;BME280;67324;56.326;43.982;2023-03-01T02:36:29;99121.00;;;21.13;30.06
74678;BME280;67324;56.326;43.982;2023-03-01T02:38:57;99119.81;;;21.16;29.91
74678;BME280;67324;56.326;43.982;2023-03-01T02:41:24;99115.75;;;21.13;30.07
74678;BME280;67324;56.326;43.982;2023-03-01T02:43:52;99127.72;;;21.16;30.03
74678;BME280;67324;56.326;43.982;2023-03-01T02:46:21;99129.53;;;21.15;30.08
74678;BME280;67324;56.326;43.982;2023-03-01T02:48:48;99122.66;;;21.14;29.98
74678;BME280;67324;56.326;43.982;2023-03-01T02:56:30;99130.53;;;21.14;29.90
74678;BME280;67324;56.326;43.982;2023-03-01T02:58:57;99125.47;;;21.13;30.06
74678;BME280;67324;56.326;43.982;2023-03-01T03:01:27;99129.53;;;21.15;29.89
74678;BME280;67324;56.326;43.982;2023-03-01T03:04:17;99129.53;;;21.15;30.04
74678;BME280;67324;56.326;43.982;2023-03-01T03:06:45;99120.03;;;21.14;30.00
74678;BME280;67324;56.326;43.982;2023-03-01T03:09:12;99121.81;;;21.14;29.95
74678;BME280;67324;56.326;43.982;2023-03-01T03:11:38;99119.19;;;21.14;29.97
74678;BME280;67324;56.326;43.982;2023-03-01T03:14:08;99119.19;;;21.14;29.91
74678;BME280;67324;56.326;43.982;2023-03-01T03:16:45;99119.19;;;21.14;29.93
74678;BME280;67324;56.326;43.982;2023-03-01T03:19:12;99129.53;;;21.15;30.05
74678;BME280;67324;56.326;43.982;2023-03-01T03:21:38;99125.28;;;21.14;30.07
74678;BME280;67324;56.326;43.982;2023-03-01T03:24:04;99124.25;;;21.15;29.92
74678;BME280;67324;56.326;43.982;2023-03-01T03:26:31;99128.50;;;21.16;30.00
74678;BME280;67324;56.326;43.982;2023-03-01T03:29:15;99127.91;;;21.14;30.06
74678;BME280;67324;56.326;43.982;2023-03-01T03:31:41;99127.91;;;21.14;29.92
74678;BME280;67324;56.326;43.982;2023-03-01T03:34:07;99133.78;;;21.16;29.88
74678;BME280;67324;56.326;43.982;2023-03-01T03:36:33;99133.78;;;21.16;30.03
74678;BME280;67324;56.326;43.982;2023-03-01T03:38:58;99130.34;;;21.16;29.95
74678;BME280;67324;56.326;43.982;2023-03-01T03:41:24;99131.97;;;21.17;29.87
74678;BME280;67324;56.326;43.982;2023-03-01T03:43:50;99125.28;;;21.14;29.97
74678;BME280;67324;56.326;43.982;2023-03-01T03:46:16;99135.59;;;21.16;29.88
74678;BME280;67324;56.326;43.982;2023-03-01T03:48:44;99130.34;;;21.16;29.95
74678;BME280;67324;56.326;43.982;2023-03-01T03:51:12;99138.22;;;21.16;30.06
74678;BME280;67324;56.326;43.982;2023-03-01T03:53:39;99136.41;;;21.16;29.81
74678;BME280;67324;56.326;43.982;2023-03-01T03:56:06;99135.59;;;21.16;29.96
74678;BME280;67324;56.326;43.982;2023-03-01T03:58:32;99135.59;;;21.16;30.05
74678;BME280;67324;56.326;43.982;2023-03-01T04:00:58;99141.66;;;21.16;29.96
74678;BME280;67324;56.326;43.982;2023-03-01T04:03:25;99142.50;;;21.17;29.92
74678;BME280;67324;56.326;43.982;2023-03-01T04:05:51;99142.50;;;21.17;29.99
74678;BME280;67324;56.326;43.982;2023-03-01T04:08:19;99137.25;;;21.17;29.98
74678;BME280;67324;56.326;43.982;2023-03-01T04:10:52;99141.66;;;21.16;29.90
74678;BME280;67324;56.326;43.982;2023-03-01T04:13:21;99138.03;;;21.17;30.00
74678;BME280;67324;56.326;43.982;2023-03-01T04:15:54;99139.03;;;21.16;29.85
74678;BME280;67324;56.326;43.982;2023-03-01T04:18:22;99139.03;;;21.16;29.95
74678;BME280;67324;56.326;43.982;2023-03-01T04:20:48;99147.75;;;21.17;29.93
74678;BME280;67324;56.326;43.982;2023-03-01T04:23:19;99149.53;;;21.16;29.94
74678;BME280;67324;56.326;43.982;2023-03-01T04:25:47;99156.44;;;21.17;29.95
74678;BME280;67324;56.326;43.982;2023-03-01T04:30:47;99155.44;;;21.18;30.02
74678;BME280;67324;56.326;43.982;2023-03-01T04:33:13;99160.91;;;21.17;29.96
74678;BME280;67324;56.326;43.982;2023-03-01T04:35:39;99162.53;;;21.18;29.88
74678;BME280;67324;56.326;43.982;2023-03-01T04:38:05;99157.25;;;21.18;29.97
74678;BME280;67324;56.326;43.982;2023-03-01T04:40:32;99152.00;;;21.18;29.99
74678;BME280;67324;56.326;43.982;2023-03-01T04:42:58;99155.66;;;21.17;29.89
74678;BME280;67324;56.326;43.982;2023-03-01T04:45:23;99156.44;;;21.17;29.88
74678;BME280;67324;56.326;43.982;2023-03-01T04:47:49;99162.53;;;21.18;29.87
74678;BME280;67324;56.326;43.982;2023-03-01T04:50:18;99167.78;;;21.18;29.94
74678;BME280;67324;56.326;43.982;2023-03-01T04:52:49;99172.03;;;21.19;29.95
74678;BME280;67324;56.326;43.982;2023-03-01T04:55:15;99170.41;;;21.18;29.89
74678;BME280;67324;56.326;43.982;2023-03-01T04:57:41;99171.22;;;21.18;29.93
74678;BME280;67324;56.326;43.982;2023-03-01T05:00:10;99172.03;;;21.19;29.85
74678;BME280;67324;56.326;43.982;2023-03-01T05:03:05;99174.66;;;21.19;29.87
74678;BME280;67324;56.326;43.982;2023-03-01T05:05:34;99178.13;;;21.19;29.92
74678;BME280;67324;56.326;43.982;2023-03-01T05:08:03;99178.13;;;21.19;30.03
74678;BME280;67324;56.326;43.982;2023-03-01T05:10:31;99176.47;;;21.18;29.89
74678;BME280;67324;56.326;43.982;2023-03-01T05:12:58;99179.91;;;21.19;29.89
74678;BME280;67324;56.326;43.982;2023-03-01T05:15:26;99179.09;;;21.18;29.89
74678;BME280;67324;56.326;43.982;2023-03-01T05:17:53;99182.53;;;21.19;29.92
74678;BME280;67324;56.326;43.982;2023-03-01T05:20:20;99183.38;;;21.19;29.87
74678;BME280;67324;56.326;43.982;2023-03-01T05:22:51;99183.19;;;21.21;29.94
74678;BME280;67324;56.326;43.982;2023-03-01T05:25:20;99180.75;;;21.19;29.98
74678;BME280;67324;56.326;43.982;2023-03-01T05:28:09;99181.56;;;21.20;29.92
74678;BME280;67324;56.326;43.982;2023-03-01T05:30:35;99175.50;;;21.19;29.92
74678;BME280;67324;56.326;43.982;2023-03-01T05:33:01;99182.53;;;21.19;29.88
74678;BME280;67324;56.326;43.982;2023-03-01T05:35:28;99180.75;;;21.19;29.85
74678;BME280;67324;56.326;43.982;2023-03-01T05:37:58;99184.19;;;21.20;29.93
74678;BME280;67324;56.326;43.982;2023-03-01T05:40:24;99179.75;;;21.20;30.00
74678;BME280;67324;56.326;43.982;2023-03-01T05:42:53;99181.56;;;21.20;29.96
74678;BME280;67324;56.326;43.982;2023-03-01T05:45:20;99192.88;;;21.20;29.92
74678;BME280;67324;56.326;43.982;2023-03-01T05:47:47;99185.00;;;21.20;29.95
74678;BME280;67324;56.326;43.982;2023-03-01T05:50:15;99186.81;;;21.20;29.80
74678;BME280;67324;56.326;43.982;2023-03-01T05:52:50;99201.59;;;21.21;29.94
74678;BME280;67324;56.326;43.982;2023-03-01T05:55:18;99185.81;;;21.21;29.85
74678;BME280;67324;56.326;43.982;2023-03-01T05:57:45;99198.16;;;21.20;29.93
74678;BME280;67324;56.326;43.982;2023-03-01T06:00:12;99208.50;;;21.22;29.86
74678;BME280;67324;56.326;43.982;2023-03-01T06:02:39;99202.41;;;21.21;29.91
74678;BME280;67324;56.326;43.982;2023-03-01T06:05:07;99196.16;;;21.22;29.86
74678;BME280;67324;56.326;43.982;2023-03-01T06:07:34;99206.84;;;21.21;29.82
74678;BME280;67324;56.326;43.982;2023-03-01T06:10:01;99205.88;;;21.22;29.91
74678;BME280;67324;56.326;43.982;2023-03-01T06:12:33;99205.88;;;21.22;29.97
74678;BME280;67324;56.326;43.982;2023-03-01T06:14:59;99201.41;;;21.22;29.75
74678;BME280;67324;56.326;43.982;2023-03-01T06:17:26;99205.88;;;21.22;29.80
74678;BME280;67324;56.326;43.982;2023-03-01T06:20:16;99214.56;;;21.22;29.96
74678;BME280;67324;56.326;43.982;2023-03-01T06:22:43;99209.47;;;21.21;29.93
74678;BME280;67324;56.326;43.982;2023-03-01T06:25:11;99204.84;;;21.23;29.86
74678;BME280;67324;56.326;43.982;2023-03-01T06:27:39;99209.31;;;21.22;29.95
74678;BME280;67324;56.326;43.982;2023-03-01T06:30:06;99212.75;;;21.23;29.88
74678;BME280;67324;56.326;43.982;2023-03-01T06:32:33;99214.38;;;21.24;29.79
74678;BME280;67324;56.326;43.982;2023-03-01T06:34:59;99211.94;;;21.22;29.90
74678;BME280;67324;56.326;43.982;2023-03-01T06:37:25;99213.75;;;21.22;29.92
74678;BME280;67324;56.326;43.982;2023-03-01T06:39:51;99204.03;;;21.22;29.91
74678;BME280;67324;56.326;43.982;2023-03-01T06:42:17;99204.84;;;21.23;29.86
74678;BME280;67324;56.326;43.982;2023-03-01T06:44:44;99212.75;;;21.23;29.82
74678;BME280;67324;56.326;43.982;2023-03-01T06:47:09;99209.09;;;21.24;29.88
74678;BME280;67324;56.326;43.982;2023-03-01T06:49:35;99214.56;;;21.22;29.81
74678;BME280;67324;56.326;43.982;2023-03-01T06:52:01;99204.84;;;21.23;29.88
74678;BME280;67324;56.326;43.982;2023-03-01T06:54:27;99213.56;;;21.23;29.82
74678;BME280;67324;56.326;43.982;2023-03-01T06:56:53;99203.84;;;21.24;29.88
74678;BME280;67324;56.326;43.982;2023-03-01T06:59:19;99204.84;;;21.23;29.77
74678;BME280;67324;56.326;43.982;2023-03-01T07:01:45;99207.31;;;21.24;29.84
74678;BME280;67324;56.326;43.982;2023-03-01T07:04:12;99209.94;;;21.24;29.86
74678;BME280;67324;56.326;43.982;2023-03-01T07:06:57;99213.38;;;21.25;29.96
74678;BME280;67324;56.326;43.982;2023-03-01T07:09:41;99209.09;;;21.24;29.84
74678;BME280;67324;56.326;43.982;2023-03-01T07:12:07;99206.47;;;21.24;29.84
74678;BME280;67324;56.326;43.982;2023-03-01T07:14:33;99202.88;;;21.25;29.82
74678;BME280;67324;56.326;43.982;2023-03-01T07:16:59;99198.59;;;21.24;29.87
74678;BME280;67324;56.326;43.982;2023-03-01T07:19:25;99195.78;;;21.25;29.77
74678;BME280;67324;56.326;43.982;2023-03-01T07:21:51;99206.31;;;21.25;29.75
74678;BME280;67324;56.326;43.982;2023-03-01T07:24:16;99198.41;;;21.25;29.90
74678;BME280;67324;56.326;43.982;2023-03-01T07:26:42;99201.84;;;21.26;29.95
74678;BME280;67324;56.326;43.982;2023-03-01T07:29:09;99206.13;;;21.27;29.92
74678;BME280;67324;56.326;43.982;2023-03-01T07:31:35;99211.38;;;21.27;29.88
74678;BME280;67324;56.326;43.982;2023-03-01T07:34:02;99214.00;;;21.27;29.82
74678;BME280;67324;56.326;43.982;2023-03-01T07:36:28;99207.91;;;21.26;29.81
74678;BME280;67324;56.326;43.982;2023-03-01T07:38:54;99204.47;;;21.26;29.82
74678;BME280;67324;56.326;43.982;2023-03-01T07:41:21;99207.75;;;21.28;29.81
74678;BME280;67324;56.326;43.982;2023-03-01T07:43:47;99202.47;;;21.28;29.77
74678;BME280;67324;56.326;43.982;2023-03-01T07:46:13;99196.41;;;21.27;29.84
74678;BME280;67324;56.326;43.982;2023-03-01T07:48:39;99202.47;;;21.28;29.84
74678;BME280;67324;56.326;43.982;2023-03-01T07:51:06;99199.84;;;21.28;29.83
74678;BME280;67324;56.326;43.982;2023-03-01T07:53:33;99206.13;;;21.27;29.79
74678;BME280;67324;56.326;43.982;2023-03-01T07:56:03;99203.28;;;21.28;29.67
74678;BME280;67324;56.326;43.982;2023-03-01T07:58:29;99202.47;;;21.28;29.87
74678;BME280;67324;56.326;43.982;2023-03-01T08:01:15;99195.41;;;21.28;29.78
74678;BME280;67324;56.326;43.982;2023-03-01T08:03:42;99198.03;;;21.28;29.74
74678;BME280;67324;56.326;43.982;2023-03-01T08:06:10;99211.81;;;21.30;29.81
74678;BME280;67324;56.326;43.982;2023-03-01T08:08:36;99211.00;;;21.30;29.74
74678;BME280;67324;56.326;43.982;2023-03-01T08:11:04;99212.84;;;21.29;29.77
74678;BME280;67324;56.326;43.982;2023-03-01T08:13:31;99208.38;;;21.30;29.73
74678;BME280;67324;56.326;43.982;2023-03-01T08:16:02;99212.84;;;21.29;29.81
74678;BME280;67324;56.326;43.982;2023-03-01T08:18:28;99211.00;;;21.30;29.82
74678;BME280;67324;56.326;43.982;2023-03-01T08:20:54;99224.00;;;21.32;29.79
74678;BME280;67324;56.326;43.982;2023-03-01T08:23:20;99216.28;;;21.30;29.91
74678;BME280;67324;56.326;43.982;2023-03-01T08:25:46;99222.50;;;21.29;29.84
74678;BME280;67324;56.326;43.982;2023-03-01T08:28:11;99229.41;;;21.30;29.72
74678;BME280;67324;56.326;43.982;2023-03-01T08:30:37;99227.59;;;21.30;29.87
74678;BME280;67324;56.326;43.982;2023-03-01T08:33:03;99239.94;;;21.30;29.72
74678;BME280;67324;56.326;43.982;2023-03-01T08:35:29;99252.06;;;21.31;29.79
74678;BME280;67324;56.326;43.982;2023-03-01T08:37:54;99249.44;;;21.31;29.82
74678;BME280;67324;56.326;43.982;2023-03-01T08:40:20;99256.34;;;21.32;29.77
74678;BME280;67324;56.326;43.982;2023-03-01T08:42:46;99246.81;;;21.31;29.87
74678;BME280;67324;56.326;43.982;2023-03-01T08:45:12;99261.41;;;21.34;29.75
74678;BME280;67324;56.326;43.982;2023-03-01T08:47:39;99272.94;;;21.33;29.70
74678;BME280;67324;56.326;43.982;2023-03-01T08:50:05;99260.59;;;21.33;29.78
74678;BME280;67324;56.326;43.982;2023-03-01T08:52:32;99259.78;;;21.33;29.81
74678;BME280;67324;56.326;43.982;2023-03-01T08:54:58;99267.69;;;21.33;29.77
74678;BME280;67324;56.326;43.982;2023-03-01T08:57:29;99251.91;;;21.33;29.82
74678;BME280;67324;56.326;43.982;2023-03-01T08:59:55;99263.22;;;21.33;29.77
74678;BME280;67324;56.326;43.982;2023-03-01T09:02:22;99260.59;;;21.33;29.79
74678;BME280;67324;56.326;43.982;2023-03-01T09:04:47;99264.88;;;21.34;29.77
74678;BME280;67324;56.326;43.982;2023-03-01T09:07:13;99260.59;;;21.33;29.82
74678;BME280;67324;56.326;43.982;2023-03-01T09:09:39;99272.94;;;21.33;29.82
74678;BME280;67324;56.326;43.982;2023-03-01T09:12:05;99275.41;;;21.34;29.93
74678;BME280;67324;56.326;43.982;2023-03-01T09:14:32;99269.31;;;21.34;29.78
74678;BME280;67324;56.326;43.982;2023-03-01T09:16:58;99263.22;;;21.33;29.77
74678;BME280;67324;56.326;43.982;2023-03-01T09:19:28;99263.88;;;21.35;29.73
74678;BME280;67324;56.326;43.982;2023-03-01T09:21:54;99263.06;;;21.35;29.81
74678;BME280;67324;56.326;43.982;2023-03-01T09:24:23;99266.50;;;21.35;29.71
74678;BME280;67324;56.326;43.982;2023-03-01T09:26:49;99269.31;;;21.34;29.82
74678;BME280;67324;56.326;43.982;2023-03-01T09:29:16;99263.06;;;21.35;29.81
74678;BME280;67324;56.326;43.982;2023-03-01T09:31:43;99262.06;;;21.36;29.86
74678;BME280;67324;56.326;43.982;2023-03-01T09:34:09;99251.09;;;21.32;29.78
74678;BME280;67324;56.326;43.982;2023-03-01T09:36:36;99253.34;;;21.35;29.75
74678;BME280;67324;56.326;43.982;2023-03-01T09:39:02;99255.97;;;21.35;29.88
74678;BME280;67324;56.326;43.982;2023-03-01T09:41:54;99252.34;;;21.36;29.80
74678;BME280;67324;56.326;43.982;2023-03-01T09:45:04;99242.03;;;21.35;29.87
74678;BME280;67324;56.326;43.982;2023-03-01T09:47:33;99249.72;;;21.36;29.69
74678;BME280;67324;56.326;43.982;2023-03-01T09:50:21;99246.28;;;21.36;29.81
74678;BME280;67324;56.326;43.982;2023-03-01T09:53:00;99245.28;;;21.37;29.74
74678;BME280;67324;56.326;43.982;2023-03-01T09:55:32;99247.06;;;21.36;29.84
74678;BME280;67324;56.326;43.982;2023-03-01T09:58:44;99249.72;;;21.36;29.83
74678;BME280;67324;56.326;43.982;2023-03-01T10:01:32;99247.06;;;21.36;29.77
74678;BME280;67324;56.326;43.982;2023-03-01T10:04:21;99247.91;;;21.37;29.78
74678;BME280;67324;56.326;43.982;2023-03-01T10:07:03;99239.19;;;21.36;29.84
74678;BME280;67324;56.326;43.982;2023-03-01T10:09:33;99247.06;;;21.36;29.85
74678;BME280;67324;56.326;43.982;2023-03-01T10:12:01;99260.88;;;21.38;29.90
74678;BME280;67324;56.326;43.982;2023-03-01T10:14:53;99258.44;;;21.37;29.70
74678;BME280;67324;56.326;43.982;2023-03-01T10:17:51;99261.88;;;21.37;29.63
74678;BME280;67324;56.326;43.982;2023-03-01T10:20:28;99258.22;;;21.38;29.79
74678;BME280;67324;56.326;43.982;2023-03-01T10:22:55;99264.34;;;21.39;29.82
74678;BME280;67324;56.326;43.982;2023-03-01T10:25:41;99270.44;;;21.39;29.78
74678;BME280;67324;56.326;43.982;2023-03-01T10:31:02;99268.75;;;21.38;29.78
74678;BME280;67324;56.326;43.982;2023-03-01T10:33:33;99259.91;;;21.39;29.77
74678;BME280;67324;56.326;43.982;2023-03-01T10:36:02;99265.97;;;21.40;29.83
74678;BME280;67324;56.326;43.982;2023-03-01T10:38:31;99271.25;;;21.40;29.83
74678;BME280;67324;56.326;43.982;2023-03-01T10:40:59;99279.13;;;21.40;29.86
74678;BME280;67324;56.326;43.982;2023-03-01T10:43:44;99265.97;;;21.40;29.78
74678;BME280;67324;56.326;43.982;2023-03-01T10:46:30;99271.03;;;21.41;29.69
74678;BME280;67324;56.326;43.982;2023-03-01T10:51:32;99258.91;;;21.40;29.92
74678;BME280;67324;56.326;43.982;2023-03-01T10:53:59;99259.72;;;21.41;29.76
74678;BME280;67324;56.326;43.982;2023-03-01T10:56:24;99262.34;;;21.41;29.84
74678;BME280;67324;56.326;43.982;2023-03-01T10:58:57;99268.41;;;21.41;29.74
74678;BME280;67324;56.326;43.982;2023-03-01T11:01:27;99257.88;;;21.41;29.85
74678;BME280;67324;56.326;43.982;2023-03-01T11:06:35;99257.09;;;21.41;29.75
74678;BME280;67324;56.326;43.982;2023-03-01T11:09:22;99264.81;;;21.42;29.75
74678;BME280;67324;56.326;43.982;2023-03-01T11:12:14;99265.59;;;21.43;29.79
74678;BME280;67324;56.326;43.982;2023-03-01T11:14:49;99256.09;;;21.42;29.89
74678;BME280;67324;56.326;43.982;2023-03-01T11:17:23;99257.72;;;21.43;29.80
74678;BME280;67324;56.326;43.982;2023-03-01T11:20:31;99265.78;;;21.41;29.93
74678;BME280;67324;56.326;43.982;2023-03-01T11:23:04;99275.31;;;21.42;29.82
74678;BME280;67324;56.326;43.982;2023-03-01T11:25:38;99266.41;;;21.43;29.73
74678;BME280;67324;56.326;43.982;2023-03-01T11:28:05;99265.44;;;21.44;29.81
74678;BME280;67324;56.326;43.982;2023-03-01T11:30:54;99262.97;;;21.43;29.72
74678;BME280;67324;56.326;43.982;2023-03-01T11:36:28;99253.25;;;21.43;29.85
74678;BME280;67324;56.326;43.982;2023-03-01T11:38:57;99258.53;;;21.43;29.83
74678;BME280;67324;56.326;43.982;2023-03-01T11:41:31;99262.81;;;21.44;29.79
74678;BME280;67324;56.326;43.982;2023-03-01T11:44:12;99255.09;;;21.43;29.90
74678;BME280;67324;56.326;43.982;2023-03-01T11:47:06;99259.16;;;21.45;29.82
74678;BME280;67324;56.326;43.982;2023-03-01T12:01:11;99260.19;;;21.44;29.90
74678;BME280;67324;56.326;43.982;2023-03-01T12:12:17;99264.44;;;21.45;29.84
74678;BME280;67324;56.326;43.982;2023-03-01T12:26:13;99270.50;;;21.46;29.91
74678;BME280;67324;56.326;43.982;2023-03-01T12:33:57;99274.13;;;21.45;29.83
74678;BME280;67324;56.326;43.982;2023-03-01T12:41:43;99279.56;;;21.43;29.96
74678;BME280;67324;56.326;43.982;2023-03-01T12:44:27;99286.66;;;21.43;29.84
74678;BME280;67324;56.326;43.982;2023-03-01T12:47:05;99280.38;;;21.44;29.85
74678;BME280;67324;56.326;43.982;2023-03-01T12:49:57;99278.75;;;21.43;29.86
74678;BME280;67324;56.326;43.982;2023-03-01T12:52:55;99270.06;;;21.42;29.92
74678;BME280;67324;56.326;43.982;2023-03-01T13:00:45;99287.47;;;21.43;30.09
74678;BME280;67324;56.326;43.982;2023-03-01T13:06:21;99290.09;;;21.43;29.86
74678;BME280;67324;56.326;43.982;2023-03-01T13:11:21;99291.91;;;21.43;29.94
74678;BME280;67324;56.326;43.982;2023-03-01T13:13:47;99286.66;;;21.43;29.93
74678;BME280;67324;56.326;43.982;2023-03-01T13:16:38;99289.28;;;21.43;29.96
74678;BME280;67324;56.326;43.982;2023-03-01T13:19:18;99285.22;;;21.40;29.88
74678;BME280;67324;56.326;43.982;2023-03-01T13:21:45;99280.59;;;21.42;29.93
74678;BME280;67324;56.326;43.982;2023-03-01T13:32:31;99287.47;;;21.43;29.84
74678;BME280;67324;56.326;43.982;2023-03-01T13:37:44;99283.22;;;21.42;30.02
74678;BME280;67324;56.326;43.982;2023-03-01T13:42:48;99294.72;;;21.41;30.01
74678;BME280;67324;56.326;43.982;2023-03-01T13:47:43;99295.56;;;21.42;29.87
74678;BME280;67324;56.326;43.982;2023-03-01T13:50:19;99295.56;;;21.42;29.96
74678;BME280;67324;56.326;43.982;2023-03-01T13:52:57;99280.59;;;21.42;29.94
74678;BME280;67324;56.326;43.982;2023-03-01T13:58:25;99288.66;;;21.41;29.93
74678;BME280;67324;56.326;43.982;2023-03-01T14:01:01;99284.19;;;21.41;29.96
74678;BME280;67324;56.326;43.982;2023-03-01T14:03:28;99287.03;;;21.40;30.03
74678;BME280;67324;56.326;43.982;2023-03-01T14:06:05;99278.31;;;21.39;30.05
74678;BME280;67324;56.326;43.982;2023-03-01T14:08:34;99283.38;;;21.41;29.98
74678;BME280;67324;56.326;43.982;2023-03-01T14:21:47;99287.16;;;21.38;29.95
74678;BME280;67324;56.326;43.982;2023-03-01T14:24:34;99283.59;;;21.39;30.08
74678;BME280;67324;56.326;43.982;2023-03-01T14:27:03;99283.59;;;21.39;30.03
74678;BME280;67324;56.326;43.982;2023-03-01T14:29:36;99277.50;;;21.39;29.97
74678;BME280;67324;56.326;43.982;2023-03-01T14:34:36;99280.97;;;21.39;30.09
74678;BME280;67324;56.326;43.982;2023-03-01T14:37:40;99288.00;;;21.39;29.82
74678;BME280;67324;56.326;43.982;2023-03-01T14:40:21;99289.81;;;21.38;30.04
74678;BME280;67324;56.326;43.982;2023-03-01T14:42:47;99284.53;;;21.38;30.02
74678;BME280;67324;56.326;43.982;2023-03-01T14:45:13;99286.22;;;21.39;29.97
74678;BME280;67324;56.326;43.982;2023-03-01T14:47:39;99290.47;;;21.40;29.99
74678;BME280;67324;56.326;43.982;2023-03-01T14:50:28;99294.13;;;21.39;30.01
74678;BME280;67324;56.326;43.982;2023-03-01T14:52:58;99294.25;;;21.38;30.10
74678;BME280;67324;56.326;43.982;2023-03-01T14:55:37;99302.00;;;21.39;29.87
74678;BME280;67324;56.326;43.982;2023-03-01T14:58:05;99308.06;;;21.40;30.03